sensor_id;sensor_type;location;lat;lon;timestamp;pressure;altitude;pressure_sealevel;temperature;humidity
63552;BME280;49698;48.072;7.800;2023-05-12T00:01:03;99137.72;;;11.59;96.23
63552;BME280;49698;48.072;7.800;2023-05-12T00:03:31;99135.25;;;11.62;96.15
63552;BME280;49698;48.072;7.800;2023-05-12T00:05:59;99133.84;;;11.65;95.75
63552;BME280;49698;48.072;7.800;2023-05-12T00:08:29;99133.25;;;11.68;95.84
63552;BME280;49698;48.072;7.800;2023-05-12T00:10:57;99131.56;;;11.72;95.95
63552;BME280;49698;48.072;7.800;2023-05-12T00:13:26;99130.97;;;11.75;95.63
63552;BME280;49698;48.072;7.800;2023-05-12T00:15:54;99137.16;;;11.75;95.26
63552;BME280;49698;48.072;7.800;2023-05-12T00:18:26;99136.56;;;11.79;95.33
63552;BME280;49698;48.072;7.800;2023-05-12T00:20:54;99129.81;;;11.81;94.94
63552;BME280;49698;48.072;7.800;2023-05-12T00:23:22;99131.41;;;11.82;94.80
63552;BME280;49698;48.072;7.800;2023-05-12T00:25:50;99126.00;;;11.82;94.93
63552;BME280;49698;48.072;7.800;2023-05-12T00:28:19;99125.72;;;11.84;94.93
63552;BME280;49698;48.072;7.800;2023-05-12T00:30:47;99118.44;;;11.84;95.22
63552;BME280;49698;48.072;7.800;2023-05-12T00:33:15;99118.44;;;11.84;94.93
63552;BME280;49698;48.072;7.800;2023-05-12T00:35:44;99123.03;;;11.84;95.37
63552;BME280;49698;48.072;7.800;2023-05-12T00:38:13;99113.44;;;11.78;95.61
63552;BME280;49698;48.072;7.800;2023-05-12T00:40:41;99111.63;;;11.73;95.72
63552;BME280;49698;48.072;7.800;2023-05-12T00:43:09;99117.00;;;11.73;96.17
63552;BME280;49698;48.072;7.800;2023-05-12T00:45:37;99115.13;;;11.73;96.13
63552;BME280;49698;48.072;7.800;2023-05-12T00:48:06;99112.22;;;11.70;96.10
63552;BME280;49698;48.072;7.800;2023-05-12T00:50:34;99120.59;;;11.68;96.73
63552;BME280;49698;48.072;7.800;2023-05-12T00:53:05;99112.22;;;11.70;96.72
63552;BME280;49698;48.072;7.800;2023-05-12T00:55:33;99118.69;;;11.69;96.72
63552;BME280;49698;48.072;7.800;2023-05-12T00:58:02;99110.94;;;11.67;97.42
63552;BME280;49698;48.072;7.800;2023-05-12T01:00:30;99103.94;;;11.66;97.27
63552;BME280;49698;48.072;7.800;2023-05-12T01:02:58;99107.13;;;11.68;97.02
63552;BME280;49698;48.072;7.800;2023-05-12T01:05:31;99104.94;;;11.70;96.81
63552;BME280;49698;48.072;7.800;2023-05-12T01:08:03;99105.22;;;11.69;97.14
63552;BME280;49698;48.072;7.800;2023-05-12T01:10:34;99109.53;;;11.70;97.49
63552;BME280;49698;48.072;7.800;2023-05-12T01:13:02;99111.63;;;11.73;97.22
63552;BME280;49698;48.072;7.800;2023-05-12T01:15:35;99113.13;;;11.79;96.70
63552;BME280;49698;48.072;7.800;2023-05-12T01:18:05;99116.53;;;11.85;96.75
63552;BME280;49698;48.072;7.800;2023-05-12T01:20:33;99110.56;;;11.88;96.28
63552;BME280;49698;48.072;7.800;2023-05-12T01:23:04;99111.88;;;11.90;96.06
63552;BME280;49698;48.072;7.800;2023-05-12T01:25:33;99109.09;;;11.95;95.92
63552;BME280;49698;48.072;7.800;2023-05-12T01:28:03;99112.28;;;11.97;95.88
63552;BME280;49698;48.072;7.800;2023-05-12T01:30:32;99114.66;;;11.99;95.78
63552;BME280;49698;48.072;7.800;2023-05-12T01:33:01;99107.09;;;12.01;95.52
63552;BME280;49698;48.072;7.800;2023-05-12T01:35:30;99111.69;;;12.01;95.66
63552;BME280;49698;48.072;7.800;2023-05-12T01:38:00;99109.00;;;12.01;95.82
63552;BME280;49698;48.072;7.800;2023-05-12T01:40:29;99105.69;;;12.04;95.92
63552;BME280;49698;48.072;7.800;2023-05-12T01:42:58;99113.78;;;12.04;95.65
63552;BME280;49698;48.072;7.800;2023-05-12T01:45:31;99106.50;;;12.04;95.53
63552;BME280;49698;48.072;7.800;2023-05-12T01:47:59;99103.00;;;12.04;95.58
63552;BME280;49698;48.072;7.800;2023-05-12T01:50:27;99110.06;;;11.99;95.95
63552;BME280;49698;48.072;7.800;2023-05-12T01:52:56;99112.28;;;11.97;96.03
63552;BME280;49698;48.072;7.800;2023-05-12T01:55:24;99105.31;;;11.96;96.24
63552;BME280;49698;48.072;7.800;2023-05-12T01:57:56;99103.69;;;11.95;96.14
63552;BME280;49698;48.072;7.800;2023-05-12T02:00:24;99105.91;;;11.93;96.31
63552;BME280;49698;48.072;7.800;2023-05-12T02:02:56;99103.50;;;11.92;96.55
63552;BME280;49698;48.072;7.800;2023-05-12T02:05:24;99103.22;;;11.93;96.61
63552;BME280;49698;48.072;7.800;2023-05-12T02:07:53;99100.50;;;11.93;96.34
63552;BME280;49698;48.072;7.800;2023-05-12T02:10:21;99103.28;;;11.88;96.47
63552;BME280;49698;48.072;7.800;2023-05-12T02:12:49;99109.28;;;11.85;96.63
63552;BME280;49698;48.072;7.800;2023-05-12T02:15:17;99106.66;;;11.80;96.70
63552;BME280;49698;48.072;7.800;2023-05-12T02:17:46;99099.66;;;11.79;96.68
63552;BME280;49698;48.072;7.800;2023-05-12T02:20:18;99102.06;;;11.81;96.96
63552;BME280;49698;48.072;7.800;2023-05-12T02:22:46;99109.84;;;11.82;97.24
63552;BME280;49698;48.072;7.800;2023-05-12T02:25:14;99106.09;;;11.83;97.08
63552;BME280;49698;48.072;7.800;2023-05-12T02:27:42;99106.09;;;11.83;97.05
63552;BME280;49698;48.072;7.800;2023-05-12T02:30:11;99105.06;;;11.79;97.04
63552;BME280;49698;48.072;7.800;2023-05-12T02:32:39;99097.28;;;11.78;97.31
63552;BME280;49698;48.072;7.800;2023-05-12T02:35:08;99102.38;;;11.79;97.58
63552;BME280;49698;48.072;7.800;2023-05-12T02:37:39;99099.66;;;11.79;97.69
63552;BME280;49698;48.072;7.800;2023-05-12T02:40:08;99107.44;;;11.81;97.73
63552;BME280;49698;48.072;7.800;2023-05-12T02:42:37;99113.06;;;11.84;97.74
63552;BME280;49698;48.072;7.800;2023-05-12T02:45:07;99105.97;;;11.88;97.75
63552;BME280;49698;48.072;7.800;2023-05-12T02:47:35;99106.50;;;11.90;97.30
63552;BME280;49698;48.072;7.800;2023-05-12T02:50:05;99112.38;;;11.92;97.14
63552;BME280;49698;48.072;7.800;2023-05-12T02:52:33;99109.66;;;11.92;97.21
63552;BME280;49698;48.072;7.800;2023-05-12T02:55:03;99105.97;;;11.88;97.16
63552;BME280;49698;48.072;7.800;2023-05-12T02:57:31;99109.50;;;11.89;97.60
63552;BME280;49698;48.072;7.800;2023-05-12T03:00:00;99114.25;;;11.92;97.42
63552;BME280;49698;48.072;7.800;2023-05-12T03:02:30;99109.66;;;11.92;97.29
63552;BME280;49698;48.072;7.800;2023-05-12T03:04:59;99113.69;;;11.95;97.24
63552;BME280;49698;48.072;7.800;2023-05-12T03:07:27;99102.63;;;11.96;97.07
63552;BME280;49698;48.072;7.800;2023-05-12T03:09:56;99105.31;;;11.96;97.00
63552;BME280;49698;48.072;7.800;2023-05-12T03:12:26;99106.91;;;11.97;96.92
63552;BME280;49698;48.072;7.800;2023-05-12T03:14:55;99101.50;;;11.97;97.00
63552;BME280;49698;48.072;7.800;2023-05-12T03:17:24;99103.09;;;11.98;97.02
63552;BME280;49698;48.072;7.800;2023-05-12T03:19:52;99106.59;;;11.99;96.79
63552;BME280;49698;48.072;7.800;2023-05-12T03:22:20;99106.31;;;12.01;96.77
63552;BME280;49698;48.072;7.800;2023-05-12T03:24:49;99106.00;;;12.02;96.52
63552;BME280;49698;48.072;7.800;2023-05-12T03:27:17;99104.09;;;12.03;96.32
63552;BME280;49698;48.072;7.800;2023-05-12T03:29:46;99103.81;;;12.04;96.51
63552;BME280;49698;48.072;7.800;2023-05-12T03:32:14;99100.50;;;12.07;95.90
63552;BME280;49698;48.072;7.800;2023-05-12T03:34:42;99103.50;;;12.06;96.15
63552;BME280;49698;48.072;7.800;2023-05-12T03:37:10;99100.31;;;12.04;95.97
63552;BME280;49698;48.072;7.800;2023-05-12T03:39:38;99102.50;;;12.02;96.45
63552;BME280;49698;48.072;7.800;2023-05-12T03:42:06;99107.91;;;12.02;96.50
63552;BME280;49698;48.072;7.800;2023-05-12T03:44:34;99103.09;;;11.98;96.69
63552;BME280;49698;48.072;7.800;2023-05-12T03:47:04;99106.31;;;12.01;97.20
63552;BME280;49698;48.072;7.800;2023-05-12T03:49:32;99104.91;;;12.03;96.84
63552;BME280;49698;48.072;7.800;2023-05-12T03:52:00;99097.59;;;12.04;96.59
63552;BME280;49698;48.072;7.800;2023-05-12T03:54:28;99102.50;;;12.02;96.64
63552;BME280;49698;48.072;7.800;2023-05-12T03:56:56;99100.91;;;12.01;96.90
63552;BME280;49698;48.072;7.800;2023-05-12T03:59:24;99100.72;;;11.97;96.97
63552;BME280;49698;48.072;7.800;2023-05-12T04:01:52;99098.03;;;11.97;97.29
63552;BME280;49698;48.072;7.800;2023-05-12T04:04:22;99090.75;;;11.97;97.42
63552;BME280;49698;48.072;7.800;2023-05-12T04:06:50;99090.22;;;11.95;97.31
63552;BME280;49698;48.072;7.800;2023-05-12T04:09:18;99090.34;;;11.90;97.38
63552;BME280;49698;48.072;7.800;2023-05-12T04:11:46;99089.81;;;11.88;97.66
63552;BME280;49698;48.072;7.800;2023-05-12T04:14:15;99084.16;;;11.90;97.75
63552;BME280;49698;48.072;7.800;2023-05-12T04:16:43;99081.66;;;11.93;97.58
63552;BME280;49698;48.072;7.800;2023-05-12T04:19:11;99091.34;;;11.94;97.39
63552;BME280;49698;48.072;7.800;2023-05-12T04:21:40;99090.53;;;11.94;97.74
63552;BME280;49698;48.072;7.800;2023-05-12T04:24:09;99095.34;;;11.97;97.70
63552;BME280;49698;48.072;7.800;2023-05-12T04:26:37;99089.03;;;12.02;97.35
63552;BME280;49698;48.072;7.800;2023-05-12T04:29:06;99093.53;;;12.06;96.66
63552;BME280;49698;48.072;7.800;2023-05-12T04:31:34;99098.13;;;12.06;96.82
63552;BME280;49698;48.072;7.800;2023-05-12T04:34:03;99097.91;;;12.02;96.71
63552;BME280;49698;48.072;7.800;2023-05-12T04:36:32;99096.34;;;12.01;96.61
63552;BME280;49698;48.072;7.800;2023-05-12T04:39:02;99097.13;;;12.02;96.88
63552;BME280;49698;48.072;7.800;2023-05-12T04:41:31;99100.31;;;12.04;96.86
63552;BME280;49698;48.072;7.800;2023-05-12T04:43:59;99105.09;;;12.07;96.45
63552;BME280;49698;48.072;7.800;2023-05-12T04:46:27;99099.22;;;12.05;96.31
63552;BME280;49698;48.072;7.800;2023-05-12T04:48:55;99108.91;;;12.06;96.26
63552;BME280;49698;48.072;7.800;2023-05-12T04:51:23;99112.59;;;12.10;96.11
63552;BME280;49698;48.072;7.800;2023-05-12T04:53:51;99110.88;;;12.14;96.06
63552;BME280;49698;48.072;7.800;2023-05-12T04:56:21;99106.88;;;12.11;95.30
63552;BME280;49698;48.072;7.800;2023-05-12T04:58:49;99116.88;;;12.11;95.65
63552;BME280;49698;48.072;7.800;2023-05-12T05:01:17;99117.59;;;12.16;95.84
63552;BME280;49698;48.072;7.800;2023-05-12T05:03:46;99118.84;;;12.19;95.58
63552;BME280;49698;48.072;7.800;2023-05-12T05:06:14;99122.66;;;12.18;95.51
63552;BME280;49698;48.072;7.800;2023-05-12T05:08:43;99115.28;;;12.23;95.62
63552;BME280;49698;48.072;7.800;2023-05-12T05:11:11;99119.66;;;12.33;95.04
63552;BME280;49698;48.072;7.800;2023-05-12T05:13:40;99128.63;;;12.42;94.38
63552;BME280;49698;48.072;7.800;2023-05-12T05:16:08;99125.22;;;12.51;94.08
63552;BME280;49698;48.072;7.800;2023-05-12T05:18:37;99122.44;;;12.56;93.73
63552;BME280;49698;48.072;7.800;2023-05-12T05:21:07;99124.03;;;12.57;93.63
63552;BME280;49698;48.072;7.800;2023-05-12T05:23:35;99125.00;;;12.61;93.39
63552;BME280;49698;48.072;7.800;2023-05-12T05:26:05;99124.22;;;12.60;93.00
63552;BME280;49698;48.072;7.800;2023-05-12T05:28:33;99125.00;;;12.61;92.99
63552;BME280;49698;48.072;7.800;2023-05-12T05:31:02;99126.78;;;12.65;92.95
63552;BME280;49698;48.072;7.800;2023-05-12T05:33:30;99121.13;;;12.67;93.09
63552;BME280;49698;48.072;7.800;2023-05-12T05:35:58;99130.88;;;12.77;92.79
63552;BME280;49698;48.072;7.800;2023-05-12T05:38:26;99128.88;;;12.82;92.67
63552;BME280;49698;48.072;7.800;2023-05-12T05:40:54;99130.53;;;12.92;92.41
63552;BME280;49698;48.072;7.800;2023-05-12T05:43:24;99132.81;;;12.98;91.91
63552;BME280;49698;48.072;7.800;2023-05-12T05:45:53;99132.22;;;13.02;91.10
63552;BME280;49698;48.072;7.800;2023-05-12T05:48:24;99140.50;;;13.05;91.15
63552;BME280;49698;48.072;7.800;2023-05-12T05:50:53;99135.88;;;13.06;91.08
63552;BME280;49698;48.072;7.800;2023-05-12T05:53:22;99139.84;;;13.08;91.16
63552;BME280;49698;48.072;7.800;2023-05-12T05:55:51;99135.94;;;13.14;91.70
63552;BME280;49698;48.072;7.800;2023-05-12T05:58:19;99138.53;;;13.19;91.57
63552;BME280;49698;48.072;7.800;2023-05-12T06:00:47;99140.94;;;13.21;91.02
63552;BME280;49698;48.072;7.800;2023-05-12T06:03:17;99132.66;;;13.17;91.15
63552;BME280;49698;48.072;7.800;2023-05-12T06:05:47;99134.03;;;13.15;91.47
63552;BME280;49698;48.072;7.800;2023-05-12T06:08:15;99129.94;;;13.17;91.83
63552;BME280;49698;48.072;7.800;2023-05-12T06:10:43;99138.72;;;13.23;91.62
63552;BME280;49698;48.072;7.800;2023-05-12T06:13:11;99130.81;;;13.27;91.72
63552;BME280;49698;48.072;7.800;2023-05-12T06:15:39;99130.41;;;13.33;91.62
63552;BME280;49698;48.072;7.800;2023-05-12T06:18:08;99142.41;;;13.50;90.97
63552;BME280;49698;48.072;7.800;2023-05-12T06:20:35;99140.63;;;13.67;89.98
63552;BME280;49698;48.072;7.800;2023-05-12T06:23:05;99141.63;;;13.80;89.07
63552;BME280;49698;48.072;7.800;2023-05-12T06:25:33;99147.88;;;13.89;88.29
63552;BME280;49698;48.072;7.800;2023-05-12T06:28:01;99143.00;;;14.00;88.02
63552;BME280;49698;48.072;7.800;2023-05-12T06:30:29;99138.91;;;14.11;87.28
63552;BME280;49698;48.072;7.800;2023-05-12T06:32:57;99143.25;;;14.21;87.57
63552;BME280;49698;48.072;7.800;2023-05-12T06:35:27;99146.78;;;14.30;86.32
63552;BME280;49698;48.072;7.800;2023-05-12T06:37:55;99147.91;;;14.29;86.66
63552;BME280;49698;48.072;7.800;2023-05-12T06:40:28;99153.91;;;14.26;86.50
63552;BME280;49698;48.072;7.800;2023-05-12T06:42:56;99140.56;;;14.21;86.22
63552;BME280;49698;48.072;7.800;2023-05-12T06:45:25;99144.84;;;14.22;86.70
63552;BME280;49698;48.072;7.800;2023-05-12T06:47:53;99147.25;;;14.32;86.33
63552;BME280;49698;48.072;7.800;2023-05-12T06:50:26;99157.03;;;14.51;85.37
63552;BME280;49698;48.072;7.800;2023-05-12T06:52:54;99158.97;;;14.59;84.67
63552;BME280;49698;48.072;7.800;2023-05-12T06:55:23;99156.75;;;14.70;84.21
63552;BME280;49698;48.072;7.800;2023-05-12T06:57:52;99151.84;;;14.80;83.74
63552;BME280;49698;48.072;7.800;2023-05-12T07:00:21;99153.44;;;14.90;83.66
63552;BME280;49698;48.072;7.800;2023-05-12T07:02:50;99159.19;;;14.97;83.38
63552;BME280;49698;48.072;7.800;2023-05-12T07:05:18;99157.28;;;15.06;82.69
63552;BME280;49698;48.072;7.800;2023-05-12T07:07:47;99150.91;;;15.11;82.70
63552;BME280;49698;48.072;7.800;2023-05-12T07:10:15;99146.91;;;15.17;81.14
63552;BME280;49698;48.072;7.800;2023-05-12T07:12:43;99153.28;;;15.21;80.71
63552;BME280;49698;48.072;7.800;2023-05-12T07:15:12;99147.72;;;15.26;80.52
63552;BME280;49698;48.072;7.800;2023-05-12T07:17:40;99158.53;;;15.35;80.13
63552;BME280;49698;48.072;7.800;2023-05-12T07:20:08;99152.00;;;15.45;79.44
63552;BME280;49698;48.072;7.800;2023-05-12T07:22:36;99150.88;;;15.54;79.02
63552;BME280;49698;48.072;7.800;2023-05-12T07:25:05;99149.44;;;15.57;77.62
63552;BME280;49698;48.072;7.800;2023-05-12T07:27:33;99147.84;;;15.56;77.64
63552;BME280;49698;48.072;7.800;2023-05-12T07:30:01;99144.50;;;15.68;77.29
63552;BME280;49698;48.072;7.800;2023-05-12T07:32:31;99146.53;;;15.79;77.03
63552;BME280;49698;48.072;7.800;2023-05-12T07:34:59;99146.06;;;15.77;76.94
63552;BME280;49698;48.072;7.800;2023-05-12T07:37:27;99146.53;;;15.79;76.61
63552;BME280;49698;48.072;7.800;2023-05-12T07:39:56;99149.38;;;15.83;76.40
63552;BME280;49698;48.072;7.800;2023-05-12T07:42:25;99144.31;;;15.81;76.39
63552;BME280;49698;48.072;7.800;2023-05-12T07:44:54;99144.63;;;15.80;76.27
63552;BME280;49698;48.072;7.800;2023-05-12T07:47:22;99145.88;;;15.82;76.05
63552;BME280;49698;48.072;7.800;2023-05-12T07:49:51;99146.84;;;15.86;76.41
63552;BME280;49698;48.072;7.800;2023-05-12T07:52:19;99139.47;;;15.96;75.64
63552;BME280;49698;48.072;7.800;2023-05-12T07:54:47;99137.56;;;15.96;75.56
63552;BME280;49698;48.072;7.800;2023-05-12T07:57:15;99141.06;;;15.97;75.81
63552;BME280;49698;48.072;7.800;2023-05-12T07:59:43;99144.38;;;16.11;75.67
63552;BME280;49698;48.072;7.800;2023-05-12T08:02:11;99138.66;;;16.33;74.80
63552;BME280;49698;48.072;7.800;2023-05-12T08:04:39;99145.59;;;16.52;74.30
63552;BME280;49698;48.072;7.800;2023-05-12T08:07:09;99139.78;;;16.62;72.44
63552;BME280;49698;48.072;7.800;2023-05-12T08:09:37;99140.44;;;16.59;71.89
63552;BME280;49698;48.072;7.800;2023-05-12T08:12:07;99132.50;;;16.54;72.28
63552;BME280;49698;48.072;7.800;2023-05-12T08:14:36;99136.22;;;16.41;72.93
63552;BME280;49698;48.072;7.800;2023-05-12T08:17:04;99144.75;;;16.30;73.47
63552;BME280;49698;48.072;7.800;2023-05-12T08:19:32;99137.44;;;16.22;73.61
63552;BME280;49698;48.072;7.800;2023-05-12T08:22:02;99141.91;;;16.18;74.17
63552;BME280;49698;48.072;7.800;2023-05-12T08:24:31;99145.31;;;16.15;74.27
63552;BME280;49698;48.072;7.800;2023-05-12T08:26:59;99152.38;;;15.99;74.95
63552;BME280;49698;48.072;7.800;2023-05-12T08:29:27;99145.44;;;15.80;75.44
63552;BME280;49698;48.072;7.800;2023-05-12T08:31:56;99145.44;;;15.72;76.35
63552;BME280;49698;48.072;7.800;2023-05-12T08:34:24;99148.47;;;15.70;76.52
63552;BME280;49698;48.072;7.800;2023-05-12T08:36:53;99150.25;;;15.66;76.59
63552;BME280;49698;48.072;7.800;2023-05-12T08:39:21;99147.53;;;15.66;76.81
63552;BME280;49698;48.072;7.800;2023-05-12T08:41:52;99150.38;;;15.61;77.39
63552;BME280;49698;48.072;7.800;2023-05-12T08:44:21;99154.06;;;15.65;77.52
63552;BME280;49698;48.072;7.800;2023-05-12T08:46:51;99158.03;;;15.76;77.36
63552;BME280;49698;48.072;7.800;2023-05-12T08:49:21;99155.91;;;15.90;76.79
63552;BME280;49698;48.072;7.800;2023-05-12T08:51:52;99157.63;;;16.04;76.35
63552;BME280;49698;48.072;7.800;2023-05-12T08:54:26;99156.94;;;16.16;75.30
63552;BME280;49698;48.072;7.800;2023-05-12T08:56:57;99154.84;;;16.21;74.67
63552;BME280;49698;48.072;7.800;2023-05-12T08:59:29;99158.34;;;16.22;75.09
63552;BME280;49698;48.072;7.800;2023-05-12T09:01:58;99156.53;;;16.34;74.69
63552;BME280;49698;48.072;7.800;2023-05-12T09:04:29;99153.91;;;16.47;74.04
63552;BME280;49698;48.072;7.800;2023-05-12T09:06:58;99152.09;;;16.59;73.83
63552;BME280;49698;48.072;7.800;2023-05-12T09:09:28;99145.78;;;16.76;73.45
63552;BME280;49698;48.072;7.800;2023-05-12T09:12:00;99152.53;;;16.91;71.87
63552;BME280;49698;48.072;7.800;2023-05-12T09:14:32;99157.19;;;17.11;71.39
63552;BME280;49698;48.072;7.800;2023-05-12T09:17:02;99152.31;;;17.38;70.28
63552;BME280;49698;48.072;7.800;2023-05-12T09:19:31;99150.09;;;17.52;69.42
63552;BME280;49698;48.072;7.800;2023-05-12T09:22:00;99153.50;;;17.61;69.12
63552;BME280;49698;48.072;7.800;2023-05-12T09:24:34;99161.31;;;17.84;67.11
63552;BME280;49698;48.072;7.800;2023-05-12T09:27:05;99156.25;;;18.07;67.15
63552;BME280;49698;48.072;7.800;2023-05-12T09:29:33;99153.78;;;18.14;66.31
63552;BME280;49698;48.072;7.800;2023-05-12T09:32:05;99151.59;;;18.07;67.27
63552;BME280;49698;48.072;7.800;2023-05-12T09:34:34;99156.25;;;17.95;67.23
63552;BME280;49698;48.072;7.800;2023-05-12T09:37:05;99151.44;;;17.79;67.54
63552;BME280;49698;48.072;7.800;2023-05-12T09:39:34;99156.16;;;17.70;68.24
63552;BME280;49698;48.072;7.800;2023-05-12T09:42:10;99157.09;;;17.74;67.92
63552;BME280;49698;48.072;7.800;2023-05-12T09:44:39;99142.28;;;17.84;67.95
63552;BME280;49698;48.072;7.800;2023-05-12T09:47:08;99150.38;;;18.05;66.90
63552;BME280;49698;48.072;7.800;2023-05-12T09:49:36;99141.31;;;18.01;66.39
63552;BME280;49698;48.072;7.800;2023-05-12T09:52:05;99142.66;;;18.07;66.75
63552;BME280;49698;48.072;7.800;2023-05-12T09:54:32;99139.25;;;18.10;66.51
63552;BME280;49698;48.072;7.800;2023-05-12T09:57:02;99145.19;;;18.12;66.25
63552;BME280;49698;48.072;7.800;2023-05-12T09:59:34;99140.63;;;18.16;66.33
63552;BME280;49698;48.072;7.800;2023-05-12T10:02:06;99143.00;;;18.18;66.51
63552;BME280;49698;48.072;7.800;2023-05-12T10:04:44;99137.44;;;18.26;65.86
63552;BME280;49698;48.072;7.800;2023-05-12T10:07:15;99140.63;;;18.41;65.49
63552;BME280;49698;48.072;7.800;2023-05-12T10:09:44;99140.38;;;18.46;64.95
63552;BME280;49698;48.072;7.800;2023-05-12T10:12:12;99136.09;;;18.45;65.45
63552;BME280;49698;48.072;7.800;2023-05-12T10:14:41;99136.63;;;18.50;64.82
63552;BME280;49698;48.072;7.800;2023-05-12T10:17:10;99138.47;;;18.71;64.39
63552;BME280;49698;48.072;7.800;2023-05-12T10:19:40;99140.88;;;19.00;64.08
63552;BME280;49698;48.072;7.800;2023-05-12T10:22:09;99136.78;;;19.35;61.73
63552;BME280;49698;48.072;7.800;2023-05-12T10:24:39;99133.78;;;19.52;61.33
63552;BME280;49698;48.072;7.800;2023-05-12T10:27:08;99128.22;;;19.76;61.53
63552;BME280;49698;48.072;7.800;2023-05-12T10:29:37;99132.88;;;19.92;60.11
63552;BME280;49698;48.072;7.800;2023-05-12T10:32:07;99119.66;;;19.94;59.64
63552;BME280;49698;48.072;7.800;2023-05-12T10:34:40;99131.09;;;19.68;60.41
63552;BME280;49698;48.072;7.800;2023-05-12T10:37:10;99128.97;;;19.33;60.83
63552;BME280;49698;48.072;7.800;2023-05-12T10:39:46;99125.06;;;19.18;61.20
63552;BME280;49698;48.072;7.800;2023-05-12T10:42:16;99123.75;;;19.00;61.60
63552;BME280;49698;48.072;7.800;2023-05-12T10:44:49;99120.63;;;18.86;61.37
63552;BME280;49698;48.072;7.800;2023-05-12T10:47:22;99109.97;;;18.80;61.93
63552;BME280;49698;48.072;7.800;2023-05-12T10:49:55;99112.53;;;18.89;61.84
63552;BME280;49698;48.072;7.800;2023-05-12T10:52:26;99113.31;;;19.02;60.78
63552;BME280;49698;48.072;7.800;2023-05-12T10:54:59;99116.44;;;19.16;60.57
63552;BME280;49698;48.072;7.800;2023-05-12T10:57:27;99109.69;;;19.26;59.97
63552;BME280;49698;48.072;7.800;2023-05-12T10:59:57;99102.91;;;19.48;59.50
63552;BME280;49698;48.072;7.800;2023-05-12T11:02:28;99106.38;;;19.76;58.73
63552;BME280;49698;48.072;7.800;2023-05-12T11:04:59;99100.56;;;19.94;57.13
63552;BME280;49698;48.072;7.800;2023-05-12T11:07:29;99101.81;;;20.12;57.39
63552;BME280;49698;48.072;7.800;2023-05-12T11:09:59;99101.44;;;20.30;57.79
63552;BME280;49698;48.072;7.800;2023-05-12T11:12:31;99102.81;;;20.39;57.81
63552;BME280;49698;48.072;7.800;2023-05-12T11:15:00;99102.19;;;20.46;57.60
63552;BME280;49698;48.072;7.800;2023-05-12T11:17:29;99104.66;;;20.51;56.65
63552;BME280;49698;48.072;7.800;2023-05-12T11:19:58;99093.75;;;20.51;56.72
63552;BME280;49698;48.072;7.800;2023-05-12T11:22:26;99098.97;;;20.56;54.91
63552;BME280;49698;48.072;7.800;2023-05-12T11:24:54;99093.06;;;20.73;55.52
63552;BME280;49698;48.072;7.800;2023-05-12T11:27:23;99096.25;;;20.95;55.04
63552;BME280;49698;48.072;7.800;2023-05-12T11:29:55;99101.84;;;21.02;54.61
63552;BME280;49698;48.072;7.800;2023-05-12T11:32:23;99098.19;;;20.94;54.22
63552;BME280;49698;48.072;7.800;2023-05-12T11:34:54;99088.34;;;20.90;54.81
63552;BME280;49698;48.072;7.800;2023-05-12T11:37:22;99095.97;;;21.00;53.33
63552;BME280;49698;48.072;7.800;2023-05-12T11:39:49;99095.53;;;20.98;53.39
63552;BME280;49698;48.072;7.800;2023-05-12T11:42:18;99093.16;;;20.77;53.46
63552;BME280;49698;48.072;7.800;2023-05-12T11:44:48;99087.66;;;20.58;54.32
63552;BME280;49698;48.072;7.800;2023-05-12T11:47:18;99082.41;;;20.49;54.79
63552;BME280;49698;48.072;7.800;2023-05-12T11:49:47;99084.28;;;20.29;55.76
63552;BME280;49698;48.072;7.800;2023-05-12T11:52:21;99088.59;;;20.14;55.75
63552;BME280;49698;48.072;7.800;2023-05-12T11:54:49;99093.03;;;20.03;56.13
63552;BME280;49698;48.072;7.800;2023-05-12T11:57:24;99089.16;;;19.88;56.01
63552;BME280;49698;48.072;7.800;2023-05-12T11:59:57;99083.09;;;19.79;56.78
63552;BME280;49698;48.072;7.800;2023-05-12T12:02:25;99091.19;;;19.75;56.85
63552;BME280;49698;48.072;7.800;2023-05-12T12:04:54;99085.91;;;19.54;57.29
63552;BME280;49698;48.072;7.800;2023-05-12T12:07:30;99086.16;;;19.34;58.45
63552;BME280;49698;48.072;7.800;2023-05-12T12:10:09;99097.81;;;19.18;58.87
63552;BME280;49698;48.072;7.800;2023-05-12T12:12:38;99095.94;;;19.06;59.16
63552;BME280;49698;48.072;7.800;2023-05-12T12:15:07;99092.56;;;18.97;59.41
63552;BME280;49698;48.072;7.800;2023-05-12T12:17:36;99089.75;;;18.94;59.32
63552;BME280;49698;48.072;7.800;2023-05-12T12:20:05;99093.56;;;19.05;58.83
63552;BME280;49698;48.072;7.800;2023-05-12T12:22:35;99084.22;;;19.34;58.02
63552;BME280;49698;48.072;7.800;2023-05-12T12:25:03;99084.06;;;19.87;55.97
63552;BME280;49698;48.072;7.800;2023-05-12T12:27:31;99088.84;;;20.41;54.91
63552;BME280;49698;48.072;7.800;2023-05-12T12:29:59;99091.19;;;20.42;54.81
63552;BME280;49698;48.072;7.800;2023-05-12T12:32:28;99096.69;;;20.26;55.06
63552;BME280;49698;48.072;7.800;2023-05-12T12:34:56;99091.75;;;20.16;55.87
63552;BME280;49698;48.072;7.800;2023-05-12T12:37:25;99091.50;;;20.21;55.16
63552;BME280;49698;48.072;7.800;2023-05-12T12:39:55;99099.53;;;19.98;55.13
63552;BME280;49698;48.072;7.800;2023-05-12T12:42:23;99106.28;;;19.73;56.55
63552;BME280;49698;48.072;7.800;2023-05-12T12:44:51;99100.88;;;19.45;57.02
63552;BME280;49698;48.072;7.800;2023-05-12T12:47:19;99111.88;;;19.20;58.53
63552;BME280;49698;48.072;7.800;2023-05-12T12:49:46;99116.03;;;19.02;59.32
63552;BME280;49698;48.072;7.800;2023-05-12T12:52:15;99114.53;;;18.76;60.04
63552;BME280;49698;48.072;7.800;2023-05-12T12:54:43;99112.97;;;18.51;61.14
63552;BME280;49698;48.072;7.800;2023-05-12T12:57:12;99112.97;;;18.26;63.11
63552;BME280;49698;48.072;7.800;2023-05-12T12:59:40;99113.53;;;17.95;65.61
63552;BME280;49698;48.072;7.800;2023-05-12T13:02:08;99116.06;;;17.67;66.53
63552;BME280;49698;48.072;7.800;2023-05-12T13:04:36;99110.34;;;17.48;68.10
63552;BME280;49698;48.072;7.800;2023-05-12T13:07:04;99110.56;;;17.43;68.73
63552;BME280;49698;48.072;7.800;2023-05-12T13:09:33;99107.63;;;17.48;68.33